| time (UTC) | temp C | wind direction | speed KPH | gust KPH | rain 1hr cm | rain 24hr cm | rain mn cm | humidity % | barometer mb |
| 20260509211645 | 17 | 139 | 1.6 | 4.8 | 0.00 | 0.51 | 0.51 | 74 | 958.2 |
| 20260509211139 | 17 | 253 | 1.6 | 6.4 | 0.00 | 0.51 | 0.51 | 74 | 958.2 |
| 20260509210855 | 17 | 166 | 1.6 | 6.4 | 0.00 | 0.51 | 0.51 | 75 | 958.3 |
| 20260509210128 | 16 | 229 | 0.0 | 3.2 | 0.00 | 0.51 | 0.51 | 79 | 958.3 |
| 20260509205621 | 16 | 234 | 0.0 | 3.2 | 0.00 | 0.51 | 0.51 | 79 | 958.3 |
| 20260509205114 | 16 | 199 | 0.0 | 3.2 | 0.00 | 0.51 | 0.51 | 79 | 958.3 |
| 20260509204609 | 16 | 141 | 0.0 | 3.2 | 0.00 | 0.51 | 0.51 | 80 | 958.3 |
| 20260509204103 | 15 | 219 | 0.0 | 3.2 | 0.00 | 0.51 | 0.51 | 80 | 958.3 |
| 20260509203558 | 15 | 140 | 0.0 | 1.6 | 0.00 | 0.51 | 0.51 | 79 | 958.5 |
| 20260509203051 | 15 | 231 | 0.0 | 1.6 | 0.00 | 0.51 | 0.51 | 78 | 958.6 |
| 20260509202545 | 15 | 85 | 0.0 | 1.6 | 0.00 | 0.51 | 0.51 | 79 | 958.7 |
| 20260509202039 | 15 | 11 | 0.0 | 1.6 | 0.00 | 0.51 | 0.51 | 78 | 958.7 |
| 20260509201756 | 15 | 19 | 0.0 | 1.6 | 0.00 | 0.51 | 0.51 | 78 | 958.8 |
| 20260509201026 | 14 | 19 | 0.0 | 1.6 | 0.00 | 0.51 | 0.51 | 78 | 958.9 |
| 20260509200520 | 14 | 24 | 0.0 | 1.6 | 0.00 | 0.51 | 0.51 | 77 | 958.9 |
| 20260509200015 | 14 | 16 | 0.0 | 1.6 | 0.00 | 0.51 | 0.51 | 78 | 958.9 |
| 20260509195509 | 14 | 16 | 0.0 | 1.6 | 0.00 | 0.51 | 0.51 | 78 | 958.8 |
| 20260509195004 | 14 | 19 | 0.0 | 3.2 | 0.00 | 0.51 | 0.51 | 78 | 958.7 |
| 20260509194726 | 14 | 19 | 0.0 | 3.2 | 0.00 | 0.51 | 0.51 | 78 | 958.5 |
| 20260509193952 | 14 | 126 | 0.0 | 1.6 | 0.00 | 0.51 | 0.51 | 79 | 958.6 |
| 20260509193445 | 14 | 133 | 0.0 | 0.0 | 0.03 | 0.51 | 0.51 | 79 | 958.6 |
| 20260509193201 | 14 | 133 | 0.0 | 0.0 | 0.03 | 0.51 | 0.51 | 79 | 958.7 |
| 20260509192433 | 14 | 133 | 0.0 | 0.0 | 0.03 | 0.51 | 0.51 | 79 | 958.8 |
| 20260509191928 | 15 | 133 | 0.0 | 0.0 | 0.03 | 0.51 | 0.51 | 80 | 958.8 |
| 20260509191424 | 15 | 133 | 0.0 | 1.6 | 0.03 | 0.51 | 0.51 | 80 | 958.8 |
| 20260509190920 | 15 | 133 | 0.0 | 1.6 | 0.03 | 0.51 | 0.51 | 80 | 959.0 |
| 20260509190641 | 15 | 133 | 0.0 | 1.6 | 0.05 | 0.51 | 0.51 | 80 | 959.0 |
| 20260509185917 | 15 | 133 | 0.0 | 1.6 | 0.05 | 0.51 | 0.51 | 80 | 959.2 |
| 20260509185417 | 15 | 226 | 0.0 | 0.0 | 0.05 | 0.51 | 0.51 | 79 | 959.2 |
| 20260509184913 | 15 | 226 | 0.0 | 1.6 | 0.05 | 0.51 | 0.51 | 79 | 959.2 |
| 20260509184412 | 14 | 226 | 0.0 | 1.6 | 0.05 | 0.51 | 0.51 | 80 | 959.3 |
| 20260509183910 | 14 | 226 | 0.0 | 3.2 | 0.05 | 0.51 | 0.51 | 80 | 959.3 |
| 20260509183627 | 14 | 226 | 0.0 | 3.2 | 0.03 | 0.48 | 0.48 | 80 | 959.6 |
| 20260509182908 | 14 | 239 | 0.0 | 1.6 | 0.03 | 0.48 | 0.48 | 80 | 959.5 |
| 20260509182408 | 14 | 242 | 0.0 | 1.6 | 0.03 | 0.48 | 0.48 | 80 | 959.5 |
| 20260509181905 | 14 | 231 | 0.0 | 1.6 | 0.03 | 0.48 | 0.48 | 80 | 959.5 |
| 20260509181405 | 14 | 231 | 0.0 | 0.0 | 0.03 | 0.48 | 0.48 | 80 | 959.4 |
| 20260509180906 | 15 | 231 | 0.0 | 1.6 | 0.03 | 0.48 | 0.48 | 80 | 959.2 |
| 20260509180407 | 15 | 231 | 0.0 | 1.6 | 0.03 | 0.46 | 0.46 | 80 | 959.3 |
| 20260509180118 | 15 | 229 | 0.0 | 1.6 | 0.03 | 0.46 | 0.46 | 80 | 959.3 |
| 20260509175627 | 14 | 229 | 0.0 | 1.6 | 0.03 | 0.46 | 0.46 | 79 | 959.3 |
| 20260509174902 | 14 | 235 | 0.0 | 0.0 | 0.03 | 0.46 | 0.46 | 78 | 959.4 |
| 20260509174402 | 13 | 219 | 0.0 | 1.6 | 0.03 | 0.46 | 0.46 | 78 | 959.5 |
| 20260509173901 | 13 | 219 | 0.0 | 1.6 | 0.03 | 0.46 | 0.46 | 78 | 959.7 |
| 20260509173401 | 13 | 228 | 0.0 | 0.0 | 0.03 | 0.46 | 0.46 | 77 | 959.7 |
| 20260509173128 | 13 | 226 | 0.0 | 1.6 | 0.05 | 0.46 | 0.46 | 77 | 959.8 |
| 20260509172401 | 13 | 226 | 0.0 | 1.6 | 0.05 | 0.46 | 0.46 | 77 | 959.9 |
| 20260509171901 | 13 | 231 | 0.0 | 3.2 | 0.05 | 0.46 | 0.46 | 77 | 960.0 |
| 20260509171357 | 13 | 231 | 0.0 | 3.2 | 0.05 | 0.46 | 0.46 | 77 | 960.1 |
| 20260509170858 | 13 | 236 | 0.0 | 1.6 | 0.05 | 0.46 | 0.46 | 76 | 960.1 |
| 20260509170356 | 12 | 235 | 0.0 | 1.6 | 0.05 | 0.43 | 0.43 | 76 | 960.2 |
| 20260509165858 | 12 | 195 | 0.0 | 3.2 | 0.05 | 0.43 | 0.43 | 76 | 960.2 |
| 20260509165615 | 12 | 229 | 0.0 | 3.2 | 0.08 | 0.43 | 0.43 | 76 | 960.2 |
| 20260509164857 | 12 | 136 | 0.0 | 3.2 | 0.08 | 0.43 | 0.43 | 76 | 960.1 |
| 20260509164356 | 12 | 84 | 0.0 | 4.8 | 0.10 | 0.43 | 0.43 | 76 | 960.1 |
| 20260509164121 | 12 | 179 | 0.0 | 4.8 | 0.10 | 0.43 | 0.43 | 76 | 960.1 |
| 20260509163359 | 12 | 138 | 1.6 | 3.2 | 0.10 | 0.41 | 0.43 | 76 | 960.1 |
| 20260509163116 | 12 | 160 | 1.6 | 3.2 | 0.10 | 0.41 | 0.41 | 76 | 960.0 |
| 20260509162356 | 12 | 223 | 0.0 | 3.2 | 0.13 | 0.41 | 0.41 | 76 | 959.9 |
| 20260509161856 | 12 | 149 | 0.0 | 3.2 | 0.15 | 0.41 | 0.41 | 77 | 959.4 |
| 20260509161354 | 12 | 115 | 0.0 | 3.2 | 0.18 | 0.41 | 0.41 | 76 | 959.3 |
| 20260509160855 | 12 | 40 | 0.0 | 3.2 | 0.20 | 0.41 | 0.41 | 77 | 959.7 |
| 20260509160359 | 12 | 42 | 0.0 | 3.2 | 0.20 | 0.38 | 0.38 | 77 | 959.7 |
| 20260509155855 | 12 | 70 | 0.0 | 1.6 | 0.25 | 0.38 | 0.38 | 77 | 959.8 |
| 20260509155353 | 12 | 255 | 0.0 | 3.2 | 0.25 | 0.36 | 0.36 | 77 | 959.9 |
| 20260509154850 | 12 | 248 | 0.0 | 3.2 | 0.28 | 0.36 | 0.36 | 77 | 959.9 |
| 20260509154352 | 12 | 342 | 0.0 | 1.6 | 0.25 | 0.33 | 0.33 | 78 | 959.9 |
| 20260509153851 | 12 | 249 | 0.0 | 1.6 | 0.25 | 0.33 | 0.33 | 78 | 960.1 |
| 20260509153617 | 12 | 240 | 0.0 | 1.6 | 0.25 | 0.30 | 0.30 | 78 | 960.4 |
| 20260509152851 | 12 | 240 | 0.0 | 1.6 | 0.25 | 0.30 | 0.30 | 78 | 960.5 |
| 20260509152609 | 12 | 240 | 0.0 | 0.0 | 0.23 | 0.28 | 0.28 | 79 | 960.6 |
| 20260509151840 | 12 | 240 | 0.0 | 0.0 | 0.23 | 0.25 | 0.25 | 79 | 960.6 |
| 20260509151555 | 12 | 240 | 0.0 | 0.0 | 0.20 | 0.23 | 0.23 | 80 | 960.7 |
| 20260509150827 | 12 | 240 | 0.0 | 0.0 | 0.18 | 0.20 | 0.20 | 80 | 960.8 |
| 20260509150322 | 12 | 240 | 0.0 | 0.0 | 0.13 | 0.15 | 0.18 | 80 | 961.0 |
| 20260509145815 | 12 | 240 | 0.0 | 0.0 | 0.10 | 0.13 | 0.13 | 80 | 960.9 |
| 20260509145534 | 12 | 240 | 0.0 | 0.0 | 0.08 | 0.10 | 0.10 | 80 | 960.8 |
| 20260509144804 | 12 | 240 | 0.0 | 0.0 | 0.05 | 0.08 | 0.08 | 80 | 960.7 |
| 20260509143751 | 12 | 240 | 0.0 | 1.6 | 0.05 | 0.08 | 0.08 | 80 | 960.5 |
| 20260509143245 | 12 | 240 | 0.0 | 3.2 | 0.03 | 0.05 | 0.05 | 81 | 960.4 |
| 20260509142739 | 12 | 232 | 0.0 | 3.2 | 0.05 | 0.05 | 0.05 | 80 | 960.5 |
| 20260509142454 | 12 | 232 | 0.0 | 3.2 | 0.03 | 0.03 | 0.03 | 80 | 960.4 |
| 20260509141725 | 12 | 236 | 0.0 | 3.2 | 0.03 | 0.03 | 0.03 | 80 | 960.3 |
| 20260509141219 | 12 | 243 | 0.0 | 3.2 | 0.03 | 0.03 | 0.03 | 80 | 960.2 |
| 20260509140934 | 12 | 221 | 0.0 | 3.2 | 0.03 | 0.03 | 0.03 | 80 | 960.0 |
| 20260509140207 | 12 | 169 | 0.0 | 3.2 | 0.03 | 0.03 | 0.03 | 80 | 960.0 |
| 20260509135701 | 12 | 222 | 0.0 | 3.2 | 0.03 | 0.03 | 0.03 | 80 | 960.1 |
| 20260509135156 | 12 | 253 | 0.0 | 3.2 | 0.03 | 0.03 | 0.03 | 80 | 960.0 |
| 20260509134649 | 12 | 245 | 0.0 | 3.2 | 0.03 | 0.03 | 0.03 | 80 | 959.9 |
| 20260509134408 | 12 | 252 | 0.0 | 4.8 | 0.03 | 0.03 | 0.03 | 80 | 959.9 |
| 20260509133901 | 12 | 240 | 0.0 | 4.8 | 0.03 | 0.03 | 0.03 | 80 | 959.8 |
| 20260509133131 | 12 | 193 | 0.0 | 4.8 | 0.03 | 0.03 | 0.03 | 80 | 960.0 |
| 20260509132625 | 12 | 285 | 1.6 | 4.8 | 0.00 | 0.00 | 0.00 | 79 | 959.9 |
| 20260509132119 | 12 | 252 | 1.6 | 6.4 | 0.00 | 0.00 | 0.00 | 79 | 960.0 |
| 20260509131613 | 12 | 134 | 1.6 | 11.3 | 0.00 | 0.00 | 0.00 | 78 | 960.0 |
| 20260509131108 | 12 | 266 | 1.6 | 11.3 | 0.00 | 0.00 | 0.00 | 79 | 960.0 |
| 20260509130601 | 12 | 250 | 0.0 | 4.8 | 0.00 | 0.00 | 0.00 | 80 | 959.9 |
| 20260509130056 | 12 | 240 | 0.0 | 4.8 | 0.00 | 0.00 | 0.00 | 80 | 959.8 |
| 20260509125549 | 12 | 216 | 0.0 | 3.2 | 0.00 | 0.00 | 0.00 | 80 | 959.8 |
| 20260509125044 | 12 | 217 | 0.0 | 1.6 | 0.00 | 0.00 | 0.00 | 80 | 959.8 |
| 20260509124536 | 12 | 235 | 0.0 | 1.6 | 0.00 | 0.00 | 0.00 | 81 | 959.9 |
| 20260509124031 | 12 | 241 | 0.0 | 1.6 | 0.00 | 0.00 | 0.00 | 81 | 959.7 |
| 20260509123526 | 12 | 238 | 0.0 | 3.2 | 0.00 | 0.00 | 0.00 | 80 | 959.6 |
| 20260509123020 | 12 | 239 | 0.0 | 3.2 | 0.00 | 0.00 | 0.00 | 80 | 959.6 |
| 20260509122736 | 11 | 239 | 0.0 | 0.0 | 0.00 | 0.00 | 0.00 | 80 | 959.8 |
| 20260509122008 | 11 | 238 | 0.0 | 0.0 | 0.00 | 0.00 | 0.00 | 80 | 960.0 |
| 20260509121503 | 11 | 239 | 0.0 | 0.0 | 0.00 | 0.00 | 0.00 | 80 | 960.1 |
| 20260509120955 | 11 | 239 | 0.0 | 3.2 | 0.00 | 0.00 | 0.00 | 80 | 960.4 |
| 20260509120649 | 11 | 210 | 0.0 | 0.0 | 0.00 | 0.00 | 0.00 | 79 | 960.4 |
| 20260509120537 | 11 | 239 | 0.0 | 3.2 | 0.00 | 0.00 | 0.00 | 79 | 960.4 |
| 20260509115438 | 11 | 210 | 0.0 | 0.0 | 0.00 | 0.00 | 0.00 | 80 | 960.3 |
| 20260509114931 | 11 | 210 | 0.0 | 0.0 | 0.00 | 0.00 | 0.00 | 79 | 960.2 |
| 20260509114426 | 11 | 210 | 0.0 | 0.0 | 0.00 | 0.00 | 0.00 | 79 | 960.1 |
| 20260509114143 | 11 | 210 | 0.0 | 0.0 | 0.00 | 0.00 | 0.00 | 79 | 960.0 |
| 20260509113414 | 11 | 210 | 0.0 | 0.0 | 0.00 | 0.00 | 0.00 | 79 | 959.8 |
| 20260509113129 | 11 | 210 | 0.0 | 0.0 | 0.00 | 0.00 | 0.00 | 79 | 959.8 |
| 20260509112401 | 11 | 210 | 0.0 | 0.0 | 0.00 | 0.00 | 0.00 | 79 | 959.7 |
| 20260509111855 | 11 | 210 | 0.0 | 0.0 | 0.00 | 0.00 | 0.00 | 79 | 959.7 |
| 20260509111349 | 11 | 210 | 0.0 | 0.0 | 0.00 | 0.00 | 0.00 | 78 | 959.8 |
| 20260509110843 | 11 | 210 | 0.0 | 1.6 | 0.00 | 0.00 | 0.00 | 78 | 960.0 |
| 20260509110602 | 11 | 210 | 0.0 | 6.4 | 0.00 | 0.00 | 0.00 | 78 | 960.1 |
| 20260509105831 | 11 | 251 | 0.0 | 6.4 | 0.00 | 0.00 | 0.00 | 78 | 959.9 |
| 20260509105325 | 11 | 51 | 0.0 | 1.6 | 0.00 | 0.00 | 0.00 | 78 | 959.4 |
| 20260509104819 | 11 | 213 | 0.0 | 0.0 | 0.00 | 0.00 | 0.00 | 78 | 959.5 |
| 20260509104313 | 11 | 214 | 0.0 | 0.0 | 0.00 | 0.00 | 0.00 | 77 | 959.4 |
| 20260509103807 | 11 | 213 | 0.0 | 1.6 | 0.00 | 0.00 | 0.00 | 77 | 959.4 |
| 20260509103301 | 11 | 214 | 0.0 | 1.6 | 0.00 | 0.00 | 0.00 | 77 | 959.2 |
| 20260509103033 | 11 | 214 | 0.0 | 1.6 | 0.00 | 0.00 | 0.00 | 78 | 959.4 |
| 20260509102250 | 11 | 54 | 0.0 | 4.8 | 0.00 | 0.00 | 0.00 | 78 | 959.1 |
| 20260509101743 | 11 | 54 | 0.0 | 4.8 | 0.00 | 0.00 | 0.00 | 79 | 959.1 |
| 20260509101455 | 11 | 221 | 0.0 | 0.0 | 0.00 | 0.00 | 0.00 | 80 | 959.1 |
| 20260509100731 | 10 | 221 | 0.0 | 0.0 | 0.00 | 0.00 | 0.00 | 80 | 959.2 |
| 20260509100226 | 10 | 221 | 0.0 | 0.0 | 0.00 | 0.00 | 0.00 | 80 | 959.1 |
| 20260509095719 | 10 | 221 | 0.0 | 0.0 | 0.00 | 0.00 | 0.00 | 79 | 959.2 |
| 20260509095704 | 10 | 221 | 0.0 | 0.0 | 0.00 | 0.00 | 0.00 | 79 | 959.3 |
| 20260509094707 | 10 | 221 | 0.0 | 0.0 | 0.00 | 0.00 | 0.00 | 79 | 959.2 |
| 20260509094201 | 10 | 221 | 0.0 | 0.0 | 0.00 | 0.00 | 0.00 | 79 | 959.2 |
| 20260509093655 | 10 | 221 | 0.0 | 0.0 | 0.00 | 0.00 | 0.00 | 79 | 959.3 |
| 20260509093150 | 10 | 221 | 0.0 | 0.0 | 0.00 | 0.00 | 0.00 | 79 | 959.3 |
| 20260509092643 | 10 | 221 | 0.0 | 0.0 | 0.00 | 0.00 | 0.00 | 79 | 959.3 |
| 20260509092137 | 10 | 221 | 0.0 | 0.0 | 0.00 | 0.00 | 0.00 | 77 | 959.3 |
| 20260509091857 | 10 | 221 | 0.0 | 0.0 | 0.00 | 0.00 | 0.00 | 77 | 959.4 |
| 20260509091126 | 10 | 221 | 0.0 | 0.0 | 0.00 | 0.00 | 0.00 | 77 | 959.3 |
| 20260509090619 | 11 | 221 | 0.0 | 0.0 | 0.00 | 0.00 | 0.00 | 77 | 959.3 |
| 20260509090112 | 11 | 221 | 0.0 | 0.0 | 0.00 | 0.00 | 0.00 | 77 | 959.3 |
| 20260509085607 | 11 | 221 | 0.0 | 0.0 | 0.00 | 0.00 | 0.00 | 77 | 959.3 |
| 20260509085101 | 11 | 221 | 0.0 | 0.0 | 0.00 | 0.00 | 0.00 | 76 | 959.3 |
| 20260509084555 | 11 | 221 | 0.0 | 0.0 | 0.00 | 0.00 | 0.00 | 76 | 959.5 |
| 20260509084049 | 11 | 221 | 0.0 | 0.0 | 0.00 | 0.00 | 0.00 | 76 | 959.4 |
| 20260509083543 | 11 | 221 | 0.0 | 0.0 | 0.00 | 0.00 | 0.00 | 77 | 959.5 |
| 20260509083038 | 11 | 221 | 0.0 | 0.0 | 0.00 | 0.00 | 0.00 | 77 | 959.4 |
| 20260509082531 | 11 | 221 | 0.0 | 0.0 | 0.00 | 0.00 | 0.00 | 77 | 959.4 |
| 20260509082025 | 11 | 221 | 0.0 | 0.0 | 0.00 | 0.00 | 0.00 | 77 | 959.5 |
| 20260509081519 | 11 | 221 | 0.0 | 3.2 | 0.00 | 0.00 | 0.00 | 78 | 959.5 |
| 20260509081500 | 11 | 221 | 0.0 | 3.2 | 0.00 | 0.00 | 0.00 | 79 | 959.4 |
| 20260509080508 | 11 | 57 | 0.0 | 3.2 | 0.00 | 0.00 | 0.00 | 79 | 959.5 |
| 20260509080224 | 11 | 57 | 1.6 | 8.0 | 0.00 | 0.00 | 0.00 | 79 | 959.5 |
| 20260509075455 | 11 | 66 | 1.6 | 8.0 | 0.00 | 0.00 | 0.00 | 79 | 959.6 |
| 20260509074949 | 10 | 241 | 1.6 | 4.8 | 0.00 | 0.00 | 0.00 | 81 | 959.6 |
| 20260509074443 | 10 | 261 | 0.0 | 0.0 | 0.00 | 0.00 | 0.00 | 81 | 959.6 |
| 20260509073943 | 10 | 261 | 0.0 | 0.0 | 0.00 | 0.00 | 0.00 | 81 | 959.6 |
| 20260509073440 | 10 | 261 | 0.0 | 0.0 | 0.00 | 0.00 | 0.00 | 81 | 959.6 |
| 20260509072939 | 10 | 261 | 0.0 | 0.0 | 0.00 | 0.00 | 0.00 | 81 | 959.5 |
| 20260509072438 | 10 | 261 | 0.0 | 0.0 | 0.00 | 0.00 | 0.00 | 81 | 959.6 |
| 20260509071935 | 10 | 261 | 0.0 | 0.0 | 0.00 | 0.00 | 0.00 | 81 | 959.7 |
| 20260509071432 | 10 | 261 | 0.0 | 0.0 | 0.00 | 0.00 | 0.00 | 81 | 959.8 |
| 20260509070930 | 10 | 261 | 0.0 | 0.0 | 0.00 | 0.00 | 0.00 | 81 | 959.8 |
| 20260509070429 | 10 | 261 | 0.0 | 0.0 | 0.00 | 0.00 | 0.00 | 81 | 959.8 |
| 20260509065932 | 10 | 261 | 0.0 | 0.0 | 0.00 | 0.00 | 0.00 | 81 | 959.8 |
| 20260509065429 | 10 | 261 | 0.0 | 0.0 | 0.00 | 0.00 | 0.00 | 81 | 959.8 |
| 20260509064928 | 10 | 261 | 0.0 | 0.0 | 0.00 | 0.00 | 0.00 | 80 | 959.9 |
| 20260509064426 | 10 | 261 | 0.0 | 0.0 | 0.00 | 0.00 | 0.00 | 80 | 960.0 |
| 20260509063923 | 10 | 261 | 0.0 | 0.0 | 0.00 | 0.00 | 0.00 | 80 | 960.0 |
| 20260509063903 | 10 | 261 | 0.0 | 0.0 | 0.00 | 0.00 | 0.00 | 80 | 960.1 |
| 20260509062919 | 10 | 261 | 0.0 | 0.0 | 0.00 | 0.00 | 0.00 | 80 | 960.1 |
| 20260509062419 | 10 | 261 | 0.0 | 0.0 | 0.00 | 0.00 | 0.00 | 79 | 960.2 |
| 20260509061917 | 10 | 261 | 0.0 | 0.0 | 0.00 | 0.00 | 0.00 | 79 | 960.2 |
| 20260509061417 | 10 | 261 | 0.0 | 0.0 | 0.00 | 0.00 | 0.00 | 78 | 960.3 |
| 20260509060919 | 11 | 261 | 0.0 | 0.0 | 0.00 | 0.00 | 0.00 | 77 | 960.4 |
| 20260509060636 | 11 | 260 | 0.0 | 0.0 | 0.00 | 0.00 | 0.00 | 77 | 960.2 |
| 20260509055919 | 11 | 261 | 0.0 | 0.0 | 0.00 | 0.00 | 0.00 | 76 | 960.1 |
| 20260509055640 | 11 | 261 | 0.0 | 0.0 | 0.00 | 0.00 | 0.00 | 76 | 960.1 |
| 20260509054919 | 11 | 261 | 0.0 | 0.0 | 0.00 | 0.00 | 0.00 | 75 | 960.2 |
| 20260509054420 | 11 | 261 | 0.0 | 0.0 | 0.00 | 0.00 | 0.00 | 75 | 960.2 |
| 20260509054146 | 11 | 261 | 0.0 | 0.0 | 0.00 | 0.00 | 0.00 | 76 | 960.2 |
| 20260509053637 | 11 | 261 | 0.0 | 0.0 | 0.00 | 0.00 | 0.00 | 77 | 960.2 |
| 20260509052919 | 11 | 261 | 0.0 | 0.0 | 0.00 | 0.00 | 0.00 | 78 | 960.2 |
| 20260509052915 | 11 | 261 | 0.0 | 0.0 | 0.00 | 0.00 | 0.00 | 77 | 960.3 |
| 20260509052155 | 11 | 261 | 0.0 | 0.0 | 0.00 | 0.00 | 0.00 | 78 | 960.3 |
| 20260509051419 | 11 | 261 | 0.0 | 0.0 | 0.00 | 0.00 | 0.00 | 78 | 960.4 |
| 20260509050918 | 11 | 261 | 0.0 | 0.0 | 0.00 | 0.00 | 0.00 | 78 | 960.5 |
| 20260509050417 | 11 | 261 | 0.0 | 0.0 | 0.00 | 0.00 | 0.00 | 78 | 960.5 |
| 20260509045918 | 11 | 261 | 0.0 | 0.0 | 0.00 | 0.00 | 0.00 | 78 | 960.6 |
| 20260509045420 | 11 | 261 | 0.0 | 0.0 | 0.00 | 0.00 | 0.00 | 78 | 960.6 |
| 20260509044917 | 11 | 261 | 0.0 | 0.0 | 0.00 | 0.00 | 0.00 | 78 | 960.6 |
| 20260509044419 | 11 | 261 | 0.0 | 0.0 | 0.00 | 0.00 | 0.00 | 78 | 960.5 |
| 20260509043918 | 11 | 261 | 0.0 | 0.0 | 0.00 | 0.00 | 0.00 | 78 | 960.5 |
| 20260509043420 | 11 | 261 | 0.0 | 0.0 | 0.00 | 0.00 | 0.00 | 78 | 960.5 |
| 20260509042918 | 11 | 261 | 0.0 | 0.0 | 0.00 | 0.00 | 0.00 | 78 | 960.6 |
| 20260509042418 | 11 | 261 | 0.0 | 0.0 | 0.00 | 0.00 | 0.00 | 77 | 960.7 |
| 20260509042135 | 11 | 261 | 0.0 | 0.0 | 0.00 | 0.00 | 0.00 | 77 | 960.6 |
| 20260509041418 | 11 | 261 | 0.0 | 0.0 | 0.00 | 0.00 | 0.00 | 77 | 960.6 |
| 20260509040915 | 11 | 261 | 0.0 | 0.0 | 0.00 | 0.00 | 0.00 | 76 | 960.6 |
| 20260509040413 | 11 | 261 | 0.0 | 0.0 | 0.00 | 0.00 | 0.00 | 75 | 960.5 |
| 20260509035914 | 11 | 261 | 0.0 | 0.0 | 0.00 | 0.00 | 0.00 | 74 | 960.6 |
| 20260509035636 | 11 | 261 | 0.0 | 0.0 | 0.00 | 0.00 | 0.00 | 74 | 960.7 |
| 20260509035123 | 11 | 261 | 0.0 | 0.0 | 0.00 | 0.00 | 0.00 | 74 | 960.7 |
| 20260509034357 | 11 | 261 | 0.0 | 0.0 | 0.00 | 0.00 | 0.00 | 75 | 960.7 |
| 20260509033852 | 11 | 261 | 0.0 | 0.0 | 0.00 | 0.00 | 0.00 | 76 | 960.7 |
| 20260509033345 | 12 | 261 | 0.0 | 0.0 | 0.00 | 0.00 | 0.00 | 75 | 960.8 |
| 20260509033058 | 12 | 261 | 0.0 | 0.0 | 0.00 | 0.00 | 0.00 | 75 | 960.8 |
| 20260509032333 | 12 | 261 | 0.0 | 0.0 | 0.00 | 0.00 | 0.00 | 74 | 961.0 |
| 20260509031827 | 12 | 261 | 0.0 | 0.0 | 0.00 | 0.00 | 0.00 | 72 | 961.0 |
| 20260509031321 | 12 | 261 | 0.0 | 0.0 | 0.00 | 0.00 | 0.00 | 72 | 960.9 |
| 20260509030816 | 12 | 261 | 0.0 | 0.0 | 0.00 | 0.00 | 0.00 | 72 | 961.0 |
| 20260509030309 | 12 | 261 | 0.0 | 0.0 | 0.00 | 0.00 | 0.00 | 71 | 961.0 |
| 20260509025804 | 12 | 261 | 0.0 | 0.0 | 0.00 | 0.00 | 0.00 | 71 | 961.1 |
| 20260509025257 | 12 | 261 | 0.0 | 0.0 | 0.00 | 0.00 | 0.00 | 71 | 961.2 |
| 20260509024752 | 12 | 261 | 0.0 | 0.0 | 0.00 | 0.00 | 0.00 | 72 | 961.1 |
| 20260509024245 | 12 | 261 | 0.0 | 0.0 | 0.00 | 0.00 | 0.00 | 72 | 961.2 |
| 20260509023738 | 12 | 261 | 0.0 | 0.0 | 0.00 | 0.00 | 0.00 | 72 | 961.0 |
| 20260509023500 | 12 | 261 | 0.0 | 1.6 | 0.00 | 0.00 | 0.00 | 72 | 961.0 |
| 20260509022727 | 12 | 261 | 0.0 | 1.6 | 0.00 | 0.00 | 0.00 | 72 | 960.9 |
| 20260509022439 | 12 | 261 | 0.0 | 0.0 | 0.00 | 0.00 | 0.00 | 73 | 960.7 |
| 20260509021715 | 12 | 261 | 0.0 | 0.0 | 0.00 | 0.00 | 0.00 | 71 | 960.6 |
| 20260509021209 | 12 | 261 | 0.0 | 0.0 | 0.00 | 0.00 | 0.00 | 69 | 960.6 |
| 20260509020919 | 12 | 261 | 0.0 | 0.0 | 0.00 | 0.00 | 0.00 | 68 | 960.7 |
| 20260509020154 | 12 | 261 | 0.0 | 0.0 | 0.00 | 0.00 | 0.00 | 67 | 960.7 |
| 20260509015649 | 13 | 261 | 0.0 | 0.0 | 0.00 | 0.00 | 0.00 | 66 | 960.6 |
| 20260509015142 | 13 | 261 | 0.0 | 0.0 | 0.00 | 0.00 | 0.00 | 67 | 960.6 |
| 20260509014636 | 13 | 261 | 0.0 | 0.0 | 0.00 | 0.00 | 0.00 | 68 | 960.5 |
| 20260509014359 | 13 | 261 | 0.0 | 0.0 | 0.00 | 0.00 | 0.00 | 69 | 960.6 |
| 20260509013854 | 13 | 261 | 0.0 | 0.0 | 0.00 | 0.00 | 0.00 | 68 | 960.6 |
| 20260509013118 | 13 | 261 | 0.0 | 0.0 | 0.00 | 0.00 | 0.00 | 66 | 960.5 |
| 20260509012612 | 13 | 261 | 0.0 | 0.0 | 0.00 | 0.00 | 0.00 | 66 | 960.5 |
| 20260509012105 | 13 | 261 | 0.0 | 0.0 | 0.00 | 0.00 | 0.00 | 65 | 960.5 |
| 20260509011606 | 13 | 261 | 0.0 | 0.0 | 0.00 | 0.00 | 0.00 | 65 | 960.5 |
| 20260509011050 | 13 | 261 | 0.0 | 0.0 | 0.00 | 0.00 | 0.00 | 65 | 960.4 |
| 20260509010544 | 14 | 261 | 0.0 | 0.0 | 0.00 | 0.00 | 0.00 | 66 | 960.5 |
| 20260509010038 | 14 | 261 | 0.0 | 0.0 | 0.00 | 0.00 | 0.00 | 66 | 960.4 |
| 20260509005532 | 14 | 261 | 0.0 | 0.0 | 0.00 | 0.00 | 0.00 | 64 | 960.4 |
| 20260509005027 | 14 | 261 | 0.0 | 0.0 | 0.00 | 0.00 | 0.00 | 60 | 960.4 |
| 20260509004520 | 15 | 261 | 0.0 | 0.0 | 0.00 | 0.00 | 0.00 | 59 | 960.3 |
| 20260509004014 | 15 | 261 | 0.0 | 0.0 | 0.00 | 0.00 | 0.00 | 58 | 960.3 |
| 20260509003509 | 15 | 261 | 0.0 | 0.0 | 0.00 | 0.00 | 0.00 | 58 | 960.4 |
| 20260509003227 | 15 | 261 | 0.0 | 0.0 | 0.00 | 0.00 | 0.00 | 58 | 960.4 |
| 20260509002457 | 15 | 261 | 0.0 | 0.0 | 0.00 | 0.00 | 0.00 | 58 | 960.4 |
| 20260509001950 | 15 | 261 | 0.0 | 0.0 | 0.00 | 0.00 | 0.00 | 56 | 960.4 |
| 20260509001445 | 16 | 261 | 0.0 | 1.6 | 0.00 | 0.00 | 0.00 | 53 | 960.4 |
| 20260509000938 | 16 | 261 | 0.0 | 1.6 | 0.00 | 0.00 | 0.00 | 52 | 960.3 |
| 20260509000432 | 16 | 179 | 0.0 | 3.2 | 0.00 | 0.00 | 0.00 | 51 | 960.2 |
| 20260508235932 | 16 | 169 | 0.0 | 3.2 | 0.00 | 0.00 | 0.00 | 52 | 960.1 |
| 20260508235429 | 16 | 242 | 1.6 | 3.2 | 0.00 | 0.00 | 0.00 | 51 | 960.1 |
| 20260508234927 | 16 | 245 | 1.6 | 6.4 | 0.00 | 0.00 | 0.00 | 51 | 960.1 |
| 20260508234430 | 16 | 245 | 1.6 | 6.4 | 0.00 | 0.00 | 0.00 | 51 | 960.0 |
| 20260508233928 | 16 | 231 | 1.6 | 8.0 | 0.00 | 0.00 | 0.00 | 50 | 960.0 |
| 20260508233425 | 16 | 219 | 1.6 | 8.0 | 0.00 | 0.00 | 0.00 | 50 | 959.9 |
| 20260508232924 | 16 | 236 | 1.6 | 8.0 | 0.00 | 0.00 | 0.00 | 50 | 959.8 |
| 20260508232422 | 16 | 238 | 1.6 | 9.7 | 0.00 | 0.00 | 0.00 | 49 | 959.7 |
| 20260508231920 | 17 | 246 | 0.0 | 9.7 | 0.00 | 0.00 | 0.00 | 50 | 959.7 |
| 20260508231645 | 17 | 238 | 0.0 | 1.6 | 0.00 | 0.00 | 0.00 | 49 | 959.6 |
| 20260508230922 | 17 | 238 | 0.0 | 1.6 | 0.00 | 0.00 | 0.00 | 49 | 959.6 |
| 20260508230423 | 17 | 238 | 0.0 | 1.6 | 0.00 | 0.00 | 0.00 | 49 | 959.5 |
| 20260508225922 | 17 | 237 | 0.0 | 1.6 | 0.00 | 0.00 | 0.00 | 50 | 959.6 |
| 20260508225422 | 17 | 237 | 0.0 | 1.6 | 0.00 | 0.00 | 0.00 | 51 | 959.6 |
| 20260508224918 | 17 | 237 | 0.0 | 1.6 | 0.00 | 0.00 | 0.00 | 49 | 959.7 |
| 20260508224418 | 17 | 238 | 0.0 | 3.2 | 0.00 | 0.00 | 0.00 | 48 | 959.7 |
| 20260508223916 | 17 | 250 | 0.0 | 3.2 | 0.00 | 0.00 | 0.00 | 48 | 959.6 |
| 20260508223418 | 17 | 222 | 0.0 | 3.2 | 0.00 | 0.00 | 0.00 | 48 | 959.6 |
| 20260508223138 | 17 | 211 | 0.0 | 3.2 | 0.00 | 0.00 | 0.00 | 48 | 959.6 |
| 20260508222636 | 17 | 248 | 0.0 | 3.2 | 0.00 | 0.00 | 0.00 | 47 | 959.6 |
| 20260508221910 | 17 | 284 | 0.0 | 6.4 | 0.00 | 0.00 | 0.00 | 47 | 959.5 |
| 20260508221624 | 17 | 262 | 1.6 | 9.7 | 0.00 | 0.00 | 0.00 | 46 | 959.4 |
| 20260508220850 | 17 | 244 | 1.6 | 6.4 | 0.00 | 0.00 | 0.00 | 45 | 959.4 |
| 20260508220350 | 17 | 248 | 1.6 | 8.0 | 0.00 | 0.00 | 0.00 | 45 | 959.4 |
| 20260508215851 | 17 | 259 | 1.6 | 8.0 | 0.00 | 0.00 | 0.00 | 46 | 959.5 |
| 20260508215349 | 17 | 250 | 1.6 | 6.4 | 0.00 | 0.00 | 0.00 | 45 | 959.5 |
| 20260508214850 | 17 | 230 | 1.6 | 8.0 | 0.00 | 0.00 | 0.00 | 45 | 959.6 |
| 20260508214614 | 17 | 211 | 3.2 | 11.3 | 0.00 | 0.00 | 0.00 | 45 | 959.6 |
| 20260508213852 | 17 | 259 | 3.2 | 14.5 | 0.00 | 0.00 | 0.00 | 44 | 959.6 |
| 20260508213352 | 17 | 192 | 3.2 | 14.5 | 0.00 | 0.00 | 0.00 | 44 | 959.8 |
| 20260508212853 | 17 | 251 | 4.8 | 11.3 | 0.00 | 0.00 | 0.00 | 43 | 959.7 |
| 20260508212350 | 17 | 251 | 3.2 | 11.3 | 0.00 | 0.00 | 0.00 | 43 | 959.7 |
| 20260508211851 | 17 | 255 | 4.8 | 14.5 | 0.00 | 0.00 | 0.00 | 42 | 959.7 |